Time;durP1;ratioP1;P1;durP2;ratioP2;P2;SDS_P1;SDS_P2;PMS_P1;PMS_P2;Temp;Humidity;BMP_temperature;BMP_pressure;BME280_temperature;BME280_humidity;BME280_pressure;Samples;Min_cycle;Max_cycle;Signal;HPM_P1;HPM_P2
2023/08/15 00:01:45;;;;;;;9.35;3.50;;;;;;;20.28;100.00;101380.91;5111228;28;20096;-77
2023/08/15 00:04:11;;;;;;;8.80;3.45;;;;;;;20.23;100.00;101380.81;5109877;28;20065;-72
2023/08/15 00:06:36;;;;;;;11.32;3.55;;;;;;;20.24;100.00;101385.22;5110259;28;20030;-77
2023/08/15 00:09:02;;;;;;;5.40;3.17;;;;;;;20.23;100.00;101387.16;5111569;28;20061;-77
2023/08/15 00:11:27;;;;;;;13.98;3.55;;;;;;;20.22;100.00;101382.72;5112835;28;20027;-76
2023/08/15 00:13:55;;;;;;;6.82;3.30;;;;;;;20.24;100.00;101377.84;5112689;28;20177;-66
2023/08/15 00:16:21;;;;;;;9.00;3.25;;;;;;;20.24;100.00;101372.41;5093970;28;20024;-66
2023/08/15 00:18:46;;;;;;;8.82;3.47;;;;;;;20.22;100.00;101373.72;5095575;28;20073;-82
2023/08/15 00:21:12;;;;;;;10.93;3.78;;;;;;;20.23;100.00;101378.09;5114904;28;20035;-77
2023/08/15 00:23:38;;;;;;;12.77;3.78;;;;;;;20.20;100.00;101371.25;5112411;28;20669;-67
2023/08/15 00:26:03;;;;;;;10.65;3.78;;;;;;;20.24;100.00;101377.03;5112978;28;20027;-69
2023/08/15 00:28:28;;;;;;;11.48;3.50;;;;;;;20.25;100.00;101378.69;5116382;28;20060;-69
2023/08/15 00:30:54;;;;;;;8.07;3.33;;;;;;;20.25;100.00;101378.69;5119509;28;20043;-79
2023/08/15 00:33:20;;;;;;;6.20;3.38;;;;;;;20.26;100.00;101372.13;5117674;28;20600;-77
2023/08/15 00:35:45;;;;;;;7.55;3.33;;;;;;;20.25;100.00;101371.31;5119666;28;20028;-74
2023/08/15 00:38:11;;;;;;;11.80;3.80;;;;;;;20.23;100.00;101376.22;5120830;28;20034;-75
2023/08/15 00:40:40;;;;;;;7.65;3.17;;;;;;;20.23;100.00;101372.63;5118423;28;20027;-84
2023/08/15 00:43:05;;;;;;;9.13;3.45;;;;;;;20.11;100.00;101357.16;5116465;28;20028;-75
2023/08/15 00:45:34;;;;;;;7.45;3.40;;;;;;;20.12;100.00;101344.31;5117239;28;20079;-74
2023/08/15 00:47:59;;;;;;;10.23;3.50;;;;;;;20.08;100.00;101340.44;5117345;28;20023;-76
2023/08/15 00:50:25;;;;;;;12.27;4.00;;;;;;;20.19;100.00;101356.72;5115158;28;20044;-74
2023/08/15 00:52:52;;;;;;;8.27;3.80;;;;;;;20.12;100.00;101341.59;5116099;28;20031;-67
2023/08/15 00:55:18;;;;;;;12.20;4.30;;;;;;;20.15;100.00;101339.19;5097133;28;20024;-80
2023/08/15 00:57:44;;;;;;;9.43;3.65;;;;;;;20.18;100.00;101352.34;5112699;28;20023;-81
2023/08/15 01:00:11;;;;;;;10.82;3.75;;;;;;;20.09;100.00;101336.63;5111086;28;20092;-74
2023/08/15 01:02:37;;;;;;;9.48;4.10;;;;;;;20.14;100.00;101351.19;5110832;28;20032;-81
2023/08/15 01:05:04;;;;;;;10.82;4.10;;;;;;;20.14;100.00;101345.75;5110861;28;20533;-81
2023/08/15 01:07:29;;;;;;;8.32;4.32;;;;;;;20.14;100.00;101339.44;5114571;28;20028;-80
2023/08/15 01:09:54;;;;;;;12.00;3.90;;;;;;;20.15;100.00;101350.13;5116772;28;20023;-73
2023/08/15 01:12:40;;;;;;;8.18;3.80;;;;;;;20.14;100.00;101348.47;5115576;28;20031;-68
2023/08/15 01:15:26;;;;;;;7.90;3.70;;;;;;;20.14;100.00;101351.19;5117210;28;20027;-79
2023/08/15 01:18:02;;;;;;;8.98;3.88;;;;;;;20.12;100.00;101347.88;5115987;28;20366;-73
2023/08/15 01:20:32;;;;;;;10.63;4.00;;;;;;;20.11;100.00;101350.88;5117383;28;20026;-66
2023/08/15 01:23:00;;;;;;;10.18;4.05;;;;;;;20.10;100.00;101352.78;5117802;28;20023;-77
2023/08/15 01:25:26;;;;;;;8.43;4.03;;;;;;;20.10;100.00;101347.31;5116406;28;20093;-81
2023/08/15 01:27:51;;;;;;;6.95;4.13;;;;;;;20.10;100.00;101347.31;5117953;28;20486;-76
2023/08/15 01:30:20;;;;;;;10.95;4.60;;;;;;;20.05;100.00;101346.41;5116108;28;20539;-75
2023/08/15 01:32:59;;;;;;;11.75;4.50;;;;;;;20.02;100.00;101342.25;5116250;28;20027;-80
2023/08/15 01:35:35;;;;;;;8.50;4.10;;;;;;;20.04;100.00;101340.13;5117557;28;20020;-74
2023/08/15 01:38:24;;;;;;;8.90;4.32;;;;;;;20.04;100.00;101348.31;5115995;28;20508;-72
2023/08/15 01:40:53;;;;;;;8.25;4.25;;;;;;;20.03;100.00;101348.53;5117405;28;20051;-66
2023/08/15 01:43:19;;;;;;;11.98;4.88;;;;;;;19.99;100.00;101347.41;5117651;28;20027;-66
2023/08/15 01:45:45;;;;;;;11.02;4.32;;;;;;;19.92;100.00;101339.38;5115096;28;20171;-70
2023/08/15 01:48:10;;;;;;;8.65;4.32;;;;;;;19.95;100.00;101336.13;5115554;28;20051;-68
2023/08/15 01:50:35;;;;;;;7.97;4.78;;;;;;;19.90;100.00;101345.09;5115032;27;20379;-68
2023/08/15 01:53:01;;;;;;;7.95;4.43;;;;;;;19.88;100.00;101351.88;5113879;28;20042;-69
2023/08/15 01:55:26;;;;;;;9.05;4.40;;;;;;;19.83;100.00;101344.41;5114882;28;20052;-68
2023/08/15 01:57:52;;;;;;;9.52;4.63;;;;;;;19.84;100.00;101348.00;5113758;28;20545;-72
2023/08/15 02:00:17;;;;;;;11.40;5.38;;;;;;;19.85;100.00;101349.63;5096781;28;20114;-69
2023/08/15 02:02:43;;;;;;;13.70;5.10;;;;;;;19.81;100.00;101353.94;5113770;28;20042;-67
2023/08/15 02:05:08;;;;;;;10.73;4.60;;;;;;;19.80;100.00;101347.66;5114768;28;20027;-76
2023/08/15 02:07:34;;;;;;;12.15;4.80;;;;;;;19.79;100.00;101343.25;5114931;28;20110;-68
2023/08/15 02:10:00;;;;;;;12.93;5.45;;;;;;;19.80;100.00;101341.34;5114373;28;20027;-68
2023/08/15 02:12:25;;;;;;;10.13;4.60;;;;;;;19.79;100.00;101339.69;5114854;28;20508;-67
2023/08/15 02:14:50;;;;;;;9.52;4.55;;;;;;;19.74;100.00;101334.97;5114232;28;20020;-68
2023/08/15 02:17:16;;;;;;;10.77;4.50;;;;;;;19.69;100.00;101335.72;5115200;28;20118;-72
2023/08/15 02:19:41;;;;;;;6.85;4.50;;;;;;;19.65;100.00;101323.63;5114976;28;20039;-82
2023/08/15 02:22:07;;;;;;;15.27;5.10;;;;;;;19.62;100.00;101321.38;5117676;28;20035;-73
2023/08/15 02:24:32;;;;;;;12.60;5.03;;;;;;;19.49;100.00;101305.31;5115640;27;20175;-71
2023/08/15 02:26:58;;;;;;;7.00;4.88;;;;;;;19.55;100.00;101314.41;5097193;28;20035;-80
2023/08/15 02:29:23;;;;;;;8.50;4.90;;;;;;;19.49;100.00;101310.75;5115272;28;20071;-76
2023/08/15 02:31:49;;;;;;;10.20;5.35;;;;;;;19.47;100.00;101318.38;5114818;28;20024;-68
2023/08/15 02:34:18;;;;;;;12.32;5.50;;;;;;;19.44;100.00;101306.06;5113650;28;20035;-79
2023/08/15 02:36:46;;;;;;;12.10;5.40;;;;;;;19.41;100.00;101298.34;5114892;28;20403;-88
2023/08/15 02:39:16;;;;;;;13.40;5.05;;;;;;;19.39;100.00;101310.59;5113040;28;20035;-82
2023/08/15 02:41:42;;;;;;;9.73;5.28;;;;;;;19.36;100.00;101316.53;5114807;28;20037;-71
2023/08/15 02:44:07;;;;;;;14.80;5.22;;;;;;;19.33;100.00;101315.09;5115026;28;20036;-71
2023/08/15 02:46:33;;;;;;;11.38;5.57;;;;;;;19.30;100.00;101307.41;5116131;28;20028;-66
2023/08/15 02:48:58;;;;;;;10.18;5.82;;;;;;;19.35;100.00;101303.97;5097416;28;20505;-69
2023/08/15 02:51:24;;;;;;;12.80;5.30;;;;;;;19.36;100.00;101300.97;5116359;28;20031;-65
2023/08/15 02:53:49;;;;;;;11.38;5.50;;;;;;;19.35;100.00;101293.06;5115179;28;20484;-67
2023/08/15 02:56:15;;;;;;;12.18;5.35;;;;;;;19.34;100.00;101291.41;5097416;28;20027;-73
2023/08/15 02:58:41;;;;;;;8.57;5.20;;;;;;;19.34;100.00;101289.50;5113768;28;20042;-80
2023/08/15 03:01:07;;;;;;;10.75;5.78;;;;;;;19.38;100.00;101289.84;5112214;28;20027;-74
2023/08/15 03:03:32;;;;;;;8.77;5.38;;;;;;;19.27;100.00;101269.72;5111964;28;20454;-83
2023/08/15 03:06:02;;;;;;;10.52;5.60;;;;;;;19.38;100.00;101281.66;5112195;28;20168;-82
2023/08/15 03:08:27;;;;;;;13.70;5.68;;;;;;;19.29;100.00;101269.47;5113490;28;20394;-80
2023/08/15 03:10:53;;;;;;;10.05;5.93;;;;;;;19.37;100.00;101291.75;5113605;28;20514;-77
2023/08/15 03:13:19;;;;;;;12.23;5.82;;;;;;;19.34;100.00;101289.50;5111799;28;20028;-67
2023/08/15 03:16:05;;;;;;;13.98;5.43;;;;;;;19.35;100.00;101284.88;5113329;28;20034;-70
2023/08/15 03:18:30;;;;;;;10.10;6.13;;;;;;;19.35;100.00;101282.97;5113474;28;20494;-78
2023/08/15 03:21:00;;;;;;;12.38;5.50;;;;;;;19.35;100.00;101284.88;5113459;28;20055;-74
2023/08/15 03:23:25;;;;;;;13.50;5.47;;;;;;;19.30;100.00;101287.47;5114920;28;20083;-76
2023/08/15 03:25:55;;;;;;;8.27;5.60;;;;;;;19.34;100.00;101294.13;5112491;28;20149;-79
2023/08/15 03:28:21;;;;;;;10.32;5.82;;;;;;;19.33;100.00;101295.19;5113003;28;20048;-79
2023/08/15 03:30:46;;;;;;;11.07;5.68;;;;;;;19.34;100.00;101303.13;5113924;28;20023;-82
2023/08/15 03:33:11;;;;;;;9.63;5.18;;;;;;;19.33;100.00;101300.63;5112646;28;20390;-68
2023/08/15 03:35:44;;;;;;;9.82;5.90;;;;;;;19.32;100.00;101309.91;5114094;28;20395;-67
2023/08/15 03:38:09;;;;;;;13.88;5.68;;;;;;;19.30;100.00;101306.59;5116078;28;20080;-67
2023/08/15 03:40:35;;;;;;;10.63;5.82;;;;;;;19.29;100.00;101307.66;5114490;28;20071;-66
2023/08/15 03:43:00;;;;;;;8.38;5.70;;;;;;;19.16;100.00;101290.50;5112690;28;20061;-84
2023/08/15 03:45:26;;;;;;;12.95;5.97;;;;;;;19.25;100.00;101304.59;5112235;28;20030;-79
2023/08/15 03:47:51;;;;;;;13.75;7.35;;;;;;;19.27;100.00;101305.19;5115878;28;20043;-67
2023/08/15 03:50:16;;;;;;;12.85;8.10;;;;;;;19.29;100.00;101302.22;5116554;28;20073;-66
2023/08/15 03:52:42;;;;;;;10.93;6.43;;;;;;;19.27;100.00;101293.44;5115918;28;20031;-67
2023/08/15 03:55:07;;;;;;;12.32;6.03;;;;;;;19.29;100.00;101296.75;5112993;28;20115;-66
2023/08/15 03:57:33;;;;;;;11.57;6.25;;;;;;;19.28;100.00;101303.28;5114911;28;20511;-73
2023/08/15 03:59:58;;;;;;;12.02;6.20;;;;;;;19.30;100.00;101299.22;5096612;28;20028;-67
2023/08/15 04:02:23;;;;;;;11.18;6.30;;;;;;;19.33;100.00;101303.38;5116023;28;20032;-67
2023/08/15 04:04:49;;;;;;;12.27;6.32;;;;;;;19.42;100.00;101301.91;5119217;28;20104;-79
2023/08/15 04:07:14;;;;;;;12.93;6.32;;;;;;;19.56;100.00;101300.50;5117908;28;20581;-67
2023/08/15 04:09:40;;;;;;;15.13;6.68;;;;;;;19.57;100.00;101304.91;5117964;28;20023;-68
2023/08/15 04:12:05;;;;;;;12.48;6.40;;;;;;;19.84;100.00;101293.38;5116773;28;20106;-71
2023/08/15 04:14:31;;;;;;;10.98;6.70;;;;;;;20.22;100.00;101269.88;5117761;28;20028;-70
2023/08/15 04:16:57;;;;;;;16.45;6.70;;;;;;;20.71;100.00;101289.97;5099405;28;20032;-65
2023/08/15 04:19:22;;;;;;;17.85;6.25;;;;;;;21.03;100.00;101292.81;5100384;28;20210;-66
2023/08/15 04:21:47;;;;;;;12.27;6.30;;;;;;;21.49;100.00;101286.97;5117591;28;20066;-66
2023/08/15 04:24:13;;;;;;;13.40;6.20;;;;;;;21.81;98.81;101287.78;5117931;28;20027;-67
2023/08/15 04:26:38;;;;;;;8.18;5.28;;;;;;;22.23;96.29;101287.00;5117423;28;20107;-68
2023/08/15 04:29:04;;;;;;;11.32;5.60;;;;;;;22.36;95.01;101279.41;5116807;28;20043;-68
2023/08/15 04:31:29;;;;;;;12.25;6.03;;;;;;;22.74;92.89;101284.50;5118140;28;20028;-68
2023/08/15 04:33:55;;;;;;;10.98;5.57;;;;;;;23.00;91.16;101281.88;5119755;28;20020;-66
2023/08/15 04:36:20;;;;;;;8.80;5.00;;;;;;;23.23;89.70;101269.56;5118556;28;20063;-68
2023/08/15 04:38:45;;;;;;;11.82;5.05;;;;;;;23.18;89.86;101270.38;5117549;28;20028;-67
2023/08/15 04:41:11;;;;;;;11.48;5.40;;;;;;;22.61;92.96;101254.81;5115745;28;20035;-71
2023/08/15 04:43:37;;;;;;;12.57;4.90;;;;;;;22.49;94.49;101266.03;5112729;28;20015;-67
2023/08/15 04:46:02;;;;;;;11.25;5.00;;;;;;;22.19;96.87;101277.69;5114828;28;20031;-75
2023/08/15 04:48:28;;;;;;;8.98;4.38;;;;;;;21.71;99.99;101264.97;5115133;28;20027;-66
2023/08/15 04:50:53;;;;;;;10.40;4.72;;;;;;;22.11;98.42;101264.41;5113733;28;20063;-75
2023/08/15 04:53:18;;;;;;;7.53;4.57;;;;;;;22.56;95.28;101259.47;5113477;28;20485;-66
2023/08/15 04:55:44;;;;;;;8.07;4.50;;;;;;;22.82;93.32;101260.41;5116577;28;20135;-70
2023/08/15 04:58:09;;;;;;;6.55;4.68;;;;;;;23.34;89.58;101242.94;5098337;28;20058;-67
2023/08/15 05:00:35;;;;;;;9.57;3.85;;;;;;;22.75;93.42;101256.00;5098874;28;20038;-66
2023/08/15 05:03:01;;;;;;;7.55;4.30;;;;;;;22.22;97.41;101248.91;5117172;28;20038;-67
2023/08/15 05:05:27;;;;;;;8.10;4.22;;;;;;;22.49;97.02;101246.84;5114112;28;20030;-67
2023/08/15 05:07:52;;;;;;;9.57;4.25;;;;;;;23.00;93.07;101245.38;5096597;28;20501;-66
2023/08/15 05:10:17;;;;;;;10.52;4.30;;;;;;;22.57;95.89;101255.63;5114301;28;20102;-67
2023/08/15 05:12:43;;;;;;;9.70;3.95;;;;;;;23.30;91.88;101250.91;5114169;28;20023;-66
2023/08/15 05:15:09;;;;;;;10.48;4.05;;;;;;;23.48;89.68;101237.72;5113346;28;20520;-66
2023/08/15 05:17:35;;;;;;;12.43;4.30;;;;;;;23.39;90.31;101232.78;5111291;28;20044;-67
2023/08/15 05:20:00;;;;;;;9.45;4.10;;;;;;;23.82;87.57;101238.81;5095140;28;20027;-66
2023/08/15 05:22:26;;;;;;;12.48;4.53;;;;;;;23.27;90.06;101243.19;5116465;28;20020;-67
2023/08/15 05:24:51;;;;;;;8.35;3.83;;;;;;;22.89;92.36;101250.81;5099033;28;20023;-67
2023/08/15 05:27:16;;;;;;;10.00;4.20;;;;;;;22.98;93.01;101251.97;5118788;28;20486;-78
2023/08/15 05:29:43;;;;;;;6.85;4.15;;;;;;;22.82;94.82;101254.91;5117630;28;20043;-76
2023/08/15 05:32:09;;;;;;;10.50;4.25;;;;;;;22.40;97.33;101250.34;5117624;28;20053;-66
2023/08/15 05:34:34;;;;;;;11.80;4.50;;;;;;;22.16;99.32;101239.00;5113515;28;20039;-68
2023/08/15 05:37:00;;;;;;;10.60;3.80;;;;;;;21.96;99.71;101204.06;5115740;28;20091;-66
2023/08/15 05:39:25;;;;;;;11.82;4.18;;;;;;;22.17;100.00;101254.34;5097727;28;20060;-66
2023/08/15 05:41:50;;;;;;;8.25;4.28;;;;;;;22.37;99.45;101251.72;5113961;28;20431;-66
2023/08/15 05:44:16;;;;;;;11.77;4.10;;;;;;;22.48;99.00;101255.31;5114751;28;20103;-66
2023/08/15 05:46:41;;;;;;;9.90;3.78;;;;;;;22.25;100.00;101248.34;5114309;28;20427;-66
2023/08/15 05:49:07;;;;;;;10.32;3.97;;;;;;;21.98;100.00;101246.53;5096972;28;20435;-66
2023/08/15 05:51:32;;;;;;;9.18;4.07;;;;;;;22.08;100.00;101245.75;5097987;28;20059;-66
2023/08/15 05:53:57;;;;;;;12.68;4.35;;;;;;;22.20;100.00;101246.41;5120442;28;20031;-66
2023/08/15 05:56:23;;;;;;;14.00;4.70;;;;;;;21.77;100.00;101242.84;5120475;27;20495;-66
2023/08/15 05:58:48;;;;;;;10.50;3.92;;;;;;;21.62;100.00;101239.16;5118872;28;20114;-66
2023/08/15 06:01:13;;;;;;;8.70;4.28;;;;;;;21.70;100.00;101238.69;5120278;28;20020;-65
2023/08/15 06:03:39;;;;;;;16.27;4.38;;;;;;;21.75;100.00;101233.22;5120375;28;20032;-66
2023/08/15 06:06:04;;;;;;;8.35;3.92;;;;;;;21.77;100.00;101236.53;5119041;28;20036;-67
2023/08/15 06:08:30;;;;;;;11.50;4.03;;;;;;;21.78;100.00;101233.53;5118933;28;20027;-69
2023/08/15 06:10:55;;;;;;;9.85;4.10;;;;;;;21.73;100.00;101227.22;5120113;28;20040;-67
2023/08/15 06:13:20;;;;;;;8.10;3.80;;;;;;;21.92;100.00;101222.94;5119403;28;20414;-66
2023/08/15 06:15:46;;;;;;;10.32;3.90;;;;;;;21.72;100.00;101217.31;5119642;28;20039;-66
2023/08/15 06:18:11;;;;;;;7.95;3.80;;;;;;;21.95;100.00;101216.09;5101503;28;20034;-66
2023/08/15 06:20:37;;;;;;;10.60;3.65;;;;;;;22.00;100.00;101208.75;5116285;28;20042;-66
2023/08/15 06:23:03;;;;;;;9.40;3.85;;;;;;;22.10;100.00;101212.63;5119074;28;20031;-68
2023/08/15 06:25:28;;;;;;;9.98;4.18;;;;;;;22.27;100.00;101213.28;5119728;28;20028;-66
2023/08/15 06:27:54;;;;;;;13.68;4.20;;;;;;;22.25;100.00;101205.34;5101136;28;20091;-67
2023/08/15 06:30:19;;;;;;;15.23;4.43;;;;;;;22.26;100.00;101203.41;5118319;28;20402;-66
2023/08/15 06:32:45;;;;;;;10.32;3.60;;;;;;;22.36;99.45;101191.66;5084610;28;20029;-66
2023/08/15 06:35:11;;;;;;;11.70;4.05;;;;;;;23.12;96.39;101202.03;5118170;28;20028;-66
2023/08/15 06:37:36;;;;;;;11.90;3.67;;;;;;;23.31;94.94;101202.28;5119082;28;20048;-67
2023/08/15 06:40:03;;;;;;;9.10;3.65;;;;;;;23.27;94.17;101190.22;5098306;28;20042;-66
2023/08/15 06:42:28;;;;;;;8.35;3.58;;;;;;;23.23;94.62;101189.94;5114863;28;20032;-66
2023/08/15 06:45:11;;;;;;;7.18;3.35;;;;;;;23.35;93.91;101192.44;5119467;28;20031;-66
2023/08/15 06:47:37;;;;;;;8.40;3.47;;;;;;;23.13;94.91;101200.91;5119417;28;20103;-66
2023/08/15 06:50:03;;;;;;;8.18;3.70;;;;;;;23.03;95.42;101200.91;5100833;28;20087;-66
2023/08/15 06:52:28;;;;;;;6.00;3.40;;;;;;;23.02;94.83;101189.13;5119443;28;20027;-66
2023/08/15 06:54:54;;;;;;;11.60;3.45;;;;;;;22.89;95.56;101209.66;5118373;28;20052;-66
2023/08/15 06:57:19;;;;;;;8.23;3.83;;;;;;;22.79;96.16;101200.56;5118124;28;20486;-66
2023/08/15 06:59:44;;;;;;;6.80;3.20;;;;;;;22.67;96.75;101190.66;5118254;28;20380;-67
2023/08/15 07:02:10;;;;;;;7.65;3.47;;;;;;;22.62;97.09;101192.59;5117978;28;20466;-67
2023/08/15 07:04:40;;;;;;;7.72;3.65;;;;;;;22.55;97.93;101192.00;5117284;28;20069;-66
2023/08/15 07:07:07;;;;;;;10.48;3.88;;;;;;;22.65;97.28;101195.59;5117762;28;20023;-66
2023/08/15 07:09:32;;;;;;;7.57;3.20;;;;;;;22.71;96.89;101200.03;5115232;28;20032;-67
2023/08/15 07:11:58;;;;;;;12.38;3.78;;;;;;;22.65;96.90;101186.53;5116595;28;20451;-65
2023/08/15 07:14:23;;;;;;;7.93;3.50;;;;;;;22.62;97.41;101193.41;5119149;28;20054;-66
2023/08/15 07:16:49;;;;;;;12.23;3.55;;;;;;;22.90;96.29;101194.00;5100386;28;20410;-66
2023/08/15 07:19:15;;;;;;;7.32;3.50;;;;;;;22.78;96.55;101191.53;5117486;28;20041;-66
2023/08/15 07:21:41;;;;;;;11.60;3.75;;;;;;;22.68;97.24;101184.09;5118662;28;20027;-66
2023/08/15 07:24:07;;;;;;;8.70;3.90;;;;;;;22.81;96.79;101185.47;5100968;28;20023;-66
2023/08/15 07:26:32;;;;;;;9.18;3.55;;;;;;;22.71;97.42;101179.97;5119120;28;20041;-67
2023/08/15 07:28:58;;;;;;;10.18;3.65;;;;;;;22.76;97.45;101182.72;5117274;28;20027;-66
2023/08/15 07:31:23;;;;;;;10.05;3.80;;;;;;;22.61;98.30;101180.75;5119019;28;20114;-66
2023/08/15 07:33:48;;;;;;;7.60;3.53;;;;;;;22.73;97.67;101173.13;5118472;28;20115;-66
2023/08/15 07:36:14;;;;;;;7.68;3.60;;;;;;;22.90;96.86;101177.53;5116075;28;20058;-65
2023/08/15 07:38:39;;;;;;;9.57;3.75;;;;;;;23.14;95.34;101175.94;5116902;28;20037;-69
2023/08/15 07:41:05;;;;;;;6.88;3.78;;;;;;;22.90;96.62;101172.88;5117236;28;20032;-67
2023/08/15 07:43:30;;;;;;;11.93;4.40;;;;;;;22.94;96.31;101160.28;5118334;28;20034;-67
2023/08/15 07:45:56;;;;;;;10.13;3.60;;;;;;;23.17;95.04;101158.09;5100158;28;20027;-66
2023/08/15 07:48:21;;;;;;;11.50;3.92;;;;;;;23.35;94.12;101157.53;5117423;28;20027;-66
2023/08/15 07:50:46;;;;;;;8.43;3.47;;;;;;;23.58;92.89;101150.66;5117188;28;20083;-67
2023/08/15 07:53:12;;;;;;;10.60;3.63;;;;;;;23.51;93.49;101154.75;5117841;28;20033;-66
2023/08/15 07:55:38;;;;;;;6.90;3.40;;;;;;;23.82;92.12;101164.63;5118457;28;20027;-66
2023/08/15 07:58:03;;;;;;;8.02;3.63;;;;;;;23.84;91.59;101170.69;5113975;28;20044;-66
2023/08/15 08:00:29;;;;;;;8.18;3.50;;;;;;;23.76;91.90;101159.41;5115014;28;20474;-67
2023/08/15 08:02:54;;;;;;;11.30;3.70;;;;;;;23.58;92.29;101155.31;5117473;28;20028;-66
2023/08/15 08:05:20;;;;;;;8.30;3.78;;;;;;;24.01;90.35;101153.84;5118037;28;20497;-66
2023/08/15 08:07:46;;;;;;;11.65;3.70;;;;;;;23.72;91.67;101144.59;5118436;28;20023;-66
2023/08/15 08:10:12;;;;;;;7.82;3.47;;;;;;;23.92;90.97;101148.09;5117161;28;20482;-67
2023/08/15 08:12:37;;;;;;;9.05;3.88;;;;;;;23.72;91.79;101139.09;5116671;28;20039;-66
2023/08/15 08:15:03;;;;;;;8.52;3.42;;;;;;;23.63;92.24;101120.41;5117749;28;20034;-66
2023/08/15 08:17:29;;;;;;;11.35;3.83;;;;;;;23.64;92.89;101134.94;5120909;28;20066;-73
2023/08/15 08:19:54;;;;;;;11.27;3.80;;;;;;;23.79;91.98;101132.22;5121342;28;20023;-67
2023/08/15 08:22:20;;;;;;;6.78;3.90;;;;;;;23.82;91.79;101145.38;5120578;28;20033;-66
2023/08/15 08:24:48;;;;;;;11.38;3.35;;;;;;;23.84;92.02;101154.19;5118212;28;20112;-66
2023/08/15 08:27:14;;;;;;;11.00;3.90;;;;;;;23.79;91.86;101151.44;5118103;28;20016;-68
2023/08/15 08:29:39;;;;;;;10.07;3.50;;;;;;;23.58;92.98;101150.66;5116627;28;20513;-66
2023/08/15 08:32:05;;;;;;;8.38;3.60;;;;;;;23.49;93.11;101146.00;5117116;28;20106;-66
2023/08/15 08:34:30;;;;;;;7.45;3.72;;;;;;;23.64;92.43;101162.44;5116503;28;20485;-65
2023/08/15 08:36:56;;;;;;;7.43;3.65;;;;;;;23.67;93.17;101165.47;5096369;28;20024;-65
2023/08/15 08:39:21;;;;;;;8.55;4.00;;;;;;;23.52;95.20;101160.00;5117440;28;20333;-66
2023/08/15 08:41:47;;;;;;;8.05;3.45;;;;;;;23.10;96.66;101130.91;5099410;28;20032;-65
2023/08/15 08:44:13;;;;;;;10.57;3.90;;;;;;;23.09;97.44;101147.66;5099516;28;20397;-68
2023/08/15 08:46:39;;;;;;;7.40;3.67;;;;;;;23.09;97.14;101144.94;5117312;28;20030;-67
2023/08/15 08:49:06;;;;;;;6.47;3.55;;;;;;;23.19;97.19;101140.25;5116900;28;20056;-66
2023/08/15 08:51:32;;;;;;;9.88;3.72;;;;;;;23.20;97.90;101132.84;5117434;28;20031;-67
2023/08/15 08:53:58;;;;;;;7.68;3.80;;;;;;;23.07;99.99;101112.25;5116072;28;20047;-65
2023/08/15 08:56:25;;;;;;;7.25;3.97;;;;;;;22.99;100.00;101096.34;5115864;28;20023;-67
2023/08/15 08:58:59;;;;;;;7.80;3.78;;;;;;;23.00;100.00;101094.41;5119582;28;20028;-69
2023/08/15 09:01:27;;;;;;;8.00;4.10;;;;;;;23.14;100.00;101101.00;5119713;28;20038;-66
2023/08/15 09:03:54;;;;;;;7.50;4.00;;;;;;;23.05;100.00;101099.91;5116343;28;20028;-67
2023/08/15 09:06:20;;;;;;;9.50;4.20;;;;;;;22.91;100.00;101099.59;5116353;28;20036;-66
2023/08/15 09:08:45;;;;;;;7.20;3.80;;;;;;;23.00;100.00;101111.72;5099160;28;20032;-67
2023/08/15 09:11:11;;;;;;;10.27;4.07;;;;;;;23.15;100.00;101103.47;5115890;28;20046;-67
2023/08/15 09:13:49;;;;;;;8.85;4.00;;;;;;;23.30;100.00;101104.53;5116218;28;20028;-68
2023/08/15 09:16:15;;;;;;;5.80;4.00;;;;;;;23.18;100.00;101059.00;5115915;28;20106;-66
2023/08/15 09:18:41;;;;;;;8.63;4.13;;;;;;;23.39;100.00;101100.97;5116207;28;20047;-66
2023/08/15 09:21:07;;;;;;;10.18;4.47;;;;;;;23.36;100.00;101095.22;5115831;28;20027;-67
2023/08/15 09:23:33;;;;;;;11.60;4.20;;;;;;;23.83;100.00;101116.78;5116271;28;20471;-67
2023/08/15 09:26:11;;;;;;;10.55;4.15;;;;;;;23.68;100.00;101117.69;5115404;28;20024;-66
2023/08/15 09:28:41;;;;;;;7.85;3.97;;;;;;;24.00;100.00;101116.44;5118868;28;20055;-67
2023/08/15 09:31:09;;;;;;;10.90;3.30;;;;;;;24.20;100.00;101123.78;5120327;28;20066;-66
2023/08/15 09:33:35;;;;;;;8.27;3.80;;;;;;;24.43;99.57;101122.31;5120011;28;20056;-68
2023/08/15 09:36:03;;;;;;;4.93;3.10;;;;;;;24.47;98.79;101123.41;5120414;28;20098;-67
2023/08/15 09:38:29;;;;;;;6.18;3.30;;;;;;;24.64;96.94;101113.94;5119821;28;20030;-67
2023/08/15 09:40:56;;;;;;;7.68;3.08;;;;;;;24.99;94.15;101107.31;5119883;28;20035;-67
2023/08/15 09:43:21;;;;;;;5.72;2.90;;;;;;;25.15;92.67;101105.28;5119758;28;20436;-66
2023/08/15 09:45:48;;;;;;;6.55;3.30;;;;;;;25.19;91.27;101101.66;5119667;28;20019;-68
2023/08/15 09:48:18;;;;;;;7.03;3.00;;;;;;;25.49;90.84;101106.03;5119373;28;20032;-66
2023/08/15 09:50:47;;;;;;;5.55;2.70;;;;;;;25.46;89.74;101112.16;5119253;28;20063;-70
2023/08/15 09:53:13;;;;;;;4.63;2.70;;;;;;;25.62;88.65;101109.22;5118782;28;20034;-66
2023/08/15 09:55:40;;;;;;;6.70;2.90;;;;;;;25.07;88.98;101109.47;5119278;28;20038;-66
2023/08/15 09:58:06;;;;;;;6.97;2.92;;;;;;;25.22;88.34;101089.25;5089979;28;20028;-66
2023/08/15 10:00:32;;;;;;;6.40;3.00;;;;;;;24.99;88.98;101101.81;5122873;28;20031;-66
2023/08/15 10:03:09;;;;;;;5.03;3.13;;;;;;;24.76;90.03;101095.13;5117855;28;20035;-69
2023/08/15 10:05:36;;;;;;;5.43;3.10;;;;;;;24.53;90.84;101100.25;5117261;28;20478;-66
2023/08/15 10:08:02;;;;;;;5.93;3.00;;;;;;;24.74;89.62;101092.69;5116747;28;20051;-68
2023/08/15 10:10:30;;;;;;;6.53;3.05;;;;;;;24.53;90.34;101083.72;5122350;28;20034;-66
2023/08/15 10:12:57;;;;;;;7.40;3.22;;;;;;;24.65;90.63;101069.63;5120829;28;20024;-67
2023/08/15 10:15:24;;;;;;;8.60;3.45;;;;;;;25.03;89.40;101083.59;5121284;28;20023;-66
2023/08/15 10:17:50;;;;;;;8.07;3.38;;;;;;;25.24;88.32;101084.28;5122591;28;20023;-67
2023/08/15 10:20:20;;;;;;;7.65;2.65;;;;;;;25.44;86.87;101070.28;5120441;28;20099;-66
2023/08/15 10:22:49;;;;;;;7.90;3.20;;;;;;;25.48;84.66;101065.00;5120739;28;20052;-68
2023/08/15 10:25:23;;;;;;;7.35;3.33;;;;;;;25.62;84.88;101071.44;5120128;28;20579;-67
2023/08/15 10:27:52;;;;;;;;;;;;;;;26.00;84.04;101079.84;5122969;28;20024;-67
2023/08/15 10:30:33;;;;;;;10.30;3.17;;;;;;;26.15;83.20;101084.31;5120350;28;19914;-67
2023/08/15 10:33:19;;;;;;;6.05;3.30;;;;;;;26.22;83.09;101084.78;5122055;28;20025;-66
2023/08/15 10:35:54;;;;;;;9.45;3.10;;;;;;;26.31;83.32;101077.47;5118896;28;20039;-66
2023/08/15 10:38:27;;;;;;;7.53;3.10;;;;;;;26.39;82.64;101064.94;5120715;28;20499;-66
2023/08/15 10:41:00;;;;;;;11.00;3.30;;;;;;;26.40;82.16;101066.59;5120172;28;20020;-67
2023/08/15 10:43:28;;;;;;;8.73;3.35;;;;;;;26.46;81.85;101070.94;5118990;28;20039;-67
2023/08/15 10:45:56;;;;;;;6.90;2.80;;;;;;;26.42;81.31;101067.09;5118049;28;20036;-66
2023/08/15 10:48:50;;;;;;;8.60;2.92;;;;;;;26.29;81.32;101070.59;5119873;28;20094;-67
2023/08/15 10:51:23;;;;;;;8.13;3.60;;;;;;;26.49;80.84;101062.06;5120587;28;20089;-66
2023/08/15 10:53:49;;;;;;;7.80;2.92;;;;;;;26.28;81.22;101064.28;5121290;28;20474;-66
2023/08/15 10:56:20;;;;;;;8.27;3.40;;;;;;;26.54;81.11;101059.22;5119741;28;20054;-67
2023/08/15 10:58:46;;;;;;;5.30;2.97;;;;;;;26.58;80.86;101063.00;5120728;28;20480;-67
2023/08/15 11:01:16;;;;;;;6.20;2.97;;;;;;;26.71;80.64;101062.25;5121637;28;20030;-74
2023/08/15 11:03:42;;;;;;;9.65;3.40;;;;;;;26.76;80.82;101074.34;5118326;28;20024;-70
2023/08/15 11:06:12;;;;;;;5.93;3.22;;;;;;;26.66;80.29;101067.88;5121499;28;20043;-74
2023/08/15 11:08:55;;;;;;;8.13;3.13;;;;;;;26.64;80.02;101072.84;5124061;28;20325;-68
2023/08/15 11:11:20;;;;;;;6.40;3.22;;;;;;;26.59;80.69;101067.44;5123335;28;20031;-66
2023/08/15 11:13:48;;;;;;;5.47;3.22;;;;;;;26.58;81.27;101065.78;5119854;28;20656;-66
2023/08/15 11:16:15;;;;;;;5.35;2.88;;;;;;;26.47;81.18;101067.88;5118165;28;20083;-68